Time;durP1;ratioP1;P1;durP2;ratioP2;P2;SDS_P1;SDS_P2;PMS_P1;PMS_P2;Temp;Humidity;BMP_temperature;BMP_pressure;BME280_temperature;BME280_humidity;BME280_pressure;Samples;Min_cycle;Max_cycle;Signal;HPM_P1;HPM_P2
2022/07/18 00:02:25;;;;;;;1.80;1.10;;;;;;;16.53;54.03;101153.78;5032103;28;20417;-65
2022/07/18 00:04:52;;;;;;;2.15;1.20;;;;;;;16.51;54.54;101156.13;5031496;28;20057;-64
2022/07/18 00:07:19;;;;;;;2.35;1.30;;;;;;;16.49;54.22;101144.38;5032871;28;20064;-65
2022/07/18 00:09:47;;;;;;;3.17;1.08;;;;;;;16.48;54.61;101151.16;5031225;28;20060;-65
2022/07/18 00:12:18;;;;;;;3.17;1.30;;;;;;;16.43;54.66;101142.91;5031195;28;20056;-65
2022/07/18 00:14:46;;;;;;;3.75;1.20;;;;;;;16.34;54.75;101150.56;5033373;28;20060;-65
2022/07/18 00:17:13;;;;;;;3.20;1.48;;;;;;;16.29;55.11;101154.38;5030374;28;20502;-65
2022/07/18 00:19:41;;;;;;;2.53;1.35;;;;;;;16.28;55.60;101147.13;5033000;28;20414;-65
2022/07/18 00:22:12;;;;;;;2.90;1.30;;;;;;;16.25;55.60;101139.34;5033626;28;20521;-65
2022/07/18 00:24:40;;;;;;;2.55;1.30;;;;;;;16.20;55.69;101140.34;5034728;28;20715;-65
2022/07/18 00:27:07;;;;;;;1.70;1.20;;;;;;;16.20;55.51;101142.34;5036569;28;21465;-65
2022/07/18 00:29:36;;;;;;;3.47;1.52;;;;;;;16.15;55.58;101143.38;5033659;28;20477;-65
2022/07/18 00:32:05;;;;;;;3.33;1.40;;;;;;;16.12;55.76;101138.41;5033856;28;20049;-65
2022/07/18 00:34:32;;;;;;;3.92;1.73;;;;;;;16.06;55.33;101136.13;5037070;28;20045;-65
2022/07/18 00:37:02;;;;;;;4.25;1.30;;;;;;;16.01;55.38;101131.50;5038507;28;20053;-65
2022/07/18 00:39:30;;;;;;;3.38;1.17;;;;;;;15.95;55.57;101128.03;5036459;28;20048;-65
2022/07/18 00:41:58;;;;;;;4.15;1.40;;;;;;;15.92;55.53;101125.09;5034422;28;20052;-65
2022/07/18 00:44:28;;;;;;;2.80;1.55;;;;;;;15.91;55.80;101126.25;5023190;28;20053;-65
2022/07/18 00:46:59;;;;;;;2.92;1.33;;;;;;;15.89;55.80;101122.94;5033339;28;20060;-65
2022/07/18 00:49:27;;;;;;;3.53;1.63;;;;;;;15.86;55.75;101124.44;5029726;28;20072;-66
2022/07/18 00:51:55;;;;;;;6.10;1.77;;;;;;;15.79;55.82;101112.88;5030630;28;20045;-65
2022/07/18 00:54:23;;;;;;;3.42;1.65;;;;;;;15.78;55.86;101120.47;5035327;28;20063;-65
2022/07/18 00:56:51;;;;;;;3.15;1.40;;;;;;;15.72;55.87;101113.38;5035160;28;20497;-65
2022/07/18 00:59:19;;;;;;;3.38;1.50;;;;;;;15.66;55.99;101114.69;5035445;28;20054;-65
2022/07/18 01:01:47;;;;;;;3.13;1.15;;;;;;;15.62;56.24;101108.94;5035785;28;20060;-65
2022/07/18 01:04:21;;;;;;;2.50;1.25;;;;;;;15.62;56.27;101110.91;5034478;28;20056;-65
2022/07/18 01:06:50;;;;;;;3.35;1.60;;;;;;;15.60;56.36;101111.25;5036272;28;20060;-65
2022/07/18 01:09:19;;;;;;;3.50;1.30;;;;;;;15.59;56.73;101108.78;5034872;28;20061;-66
2022/07/18 01:11:48;;;;;;;2.22;1.20;;;;;;;15.54;56.56;101101.34;5034472;28;20060;-65
2022/07/18 01:14:16;;;;;;;3.47;1.30;;;;;;;15.52;56.77;101108.47;5034635;28;20050;-65
2022/07/18 01:16:43;;;;;;;2.78;1.30;;;;;;;15.42;56.94;101106.81;5035195;28;20053;-66
2022/07/18 01:19:12;;;;;;;2.35;1.40;;;;;;;15.46;57.35;101109.78;5035933;28;20422;-65
2022/07/18 01:21:40;;;;;;;3.85;1.30;;;;;;;15.42;57.37;101115.22;5034427;28;20057;-65
2022/07/18 01:24:08;;;;;;;2.37;1.53;;;;;;;15.41;57.27;101113.56;5034044;28;20053;-65
2022/07/18 01:26:36;;;;;;;3.65;1.50;;;;;;;15.40;57.46;101118.38;5034788;28;20053;-65
2022/07/18 01:29:04;;;;;;;3.28;1.38;;;;;;;15.35;57.44;101114.88;5033970;28;20060;-65
2022/07/18 01:31:33;;;;;;;3.00;1.10;;;;;;;15.36;57.39;101114.56;5037385;28;21081;-65
2022/07/18 01:34:03;;;;;;;1.98;1.10;;;;;;;15.36;57.33;101120.19;5034923;28;20053;-65
2022/07/18 01:36:31;;;;;;;2.42;1.23;;;;;;;15.34;57.36;101114.06;5034370;28;20478;-65
2022/07/18 01:39:00;;;;;;;2.58;1.33;;;;;;;15.33;57.49;101117.19;5034739;28;20082;-65
2022/07/18 01:41:27;;;;;;;3.22;1.50;;;;;;;15.27;57.84;101122.19;5033335;28;20041;-65
2022/07/18 01:43:54;;;;;;;3.70;1.42;;;;;;;15.25;58.07;101113.25;5033790;28;20057;-65
2022/07/18 01:46:22;;;;;;;4.40;1.63;;;;;;;15.19;57.92;101117.38;5034944;28;20056;-65
2022/07/18 01:48:49;;;;;;;2.60;1.50;;;;;;;15.18;57.65;101110.97;5033752;28;20053;-65
2022/07/18 01:51:16;;;;;;;6.53;2.15;;;;;;;15.15;58.18;101116.41;5035205;28;20061;-65
2022/07/18 01:53:56;;;;;;;4.43;1.80;;;;;;;15.10;58.29;101130.56;5035263;28;20053;-66
2022/07/18 01:56:27;;;;;;;2.40;1.75;;;;;;;15.04;58.19;101127.13;5033310;28;20053;-65
2022/07/18 01:58:56;;;;;;;3.80;1.48;;;;;;;15.06;58.36;101109.97;5035322;28;20060;-65
2022/07/18 02:01:23;;;;;;;3.38;1.50;;;;;;;15.02;58.65;101107.81;5034077;28;21426;-65
2022/07/18 02:03:54;;;;;;;4.50;1.58;;;;;;;15.05;58.27;101099.88;5033222;28;20045;-66
2022/07/18 02:06:21;;;;;;;3.30;1.50;;;;;;;15.02;58.56;101105.00;5038030;28;20049;-65
2022/07/18 02:08:48;;;;;;;4.07;1.67;;;;;;;14.98;58.93;101109.63;5034704;28;20050;-65
2022/07/18 02:11:16;;;;;;;3.13;1.50;;;;;;;14.96;58.86;101099.88;5035939;28;20078;-66
2022/07/18 02:13:44;;;;;;;3.15;1.60;;;;;;;14.95;58.77;101098.22;5033436;28;20052;-65
2022/07/18 02:16:12;;;;;;;3.60;1.60;;;;;;;14.91;58.61;101097.22;5033715;28;20068;-65
2022/07/18 02:18:48;;;;;;;3.15;1.60;;;;;;;14.89;59.08;101103.19;5033951;28;20413;-65
2022/07/18 02:21:16;;;;;;;2.92;1.50;;;;;;;14.89;58.68;101100.38;5032692;28;20462;-65
2022/07/18 02:23:44;;;;;;;2.97;1.50;;;;;;;14.87;58.82;101097.06;5035290;28;20044;-65
2022/07/18 02:26:15;;;;;;;2.67;1.70;;;;;;;14.87;58.66;101088.66;5035235;28;20067;-65
2022/07/18 02:28:44;;;;;;;3.55;1.40;;;;;;;14.82;59.18;101091.59;5031459;28;20095;-65
2022/07/18 02:31:11;;;;;;;3.03;1.50;;;;;;;14.78;59.40;101087.81;5034967;28;20064;-64
2022/07/18 02:33:38;;;;;;;2.85;1.50;;;;;;;14.79;58.93;101092.28;5031861;28;20064;-64
2022/07/18 02:36:09;;;;;;;3.50;2.10;;;;;;;14.78;59.38;101091.47;5035368;28;20061;-64
2022/07/18 02:38:36;;;;;;;2.63;1.58;;;;;;;14.80;59.48;101091.09;5033925;28;20052;-64
2022/07/18 02:41:03;;;;;;;3.67;1.52;;;;;;;14.76;60.14;101090.09;5032871;28;20433;-64
2022/07/18 02:43:31;;;;;;;2.75;1.42;;;;;;;14.72;60.42;101091.91;5030750;28;20052;-64
2022/07/18 02:46:00;;;;;;;2.33;1.27;;;;;;;14.75;60.07;101088.47;5031625;28;20140;-64
2022/07/18 02:48:27;;;;;;;2.83;1.60;;;;;;;14.68;60.41;101099.34;5033292;28;20505;-64
2022/07/18 02:50:54;;;;;;;2.63;1.48;;;;;;;14.67;60.57;101094.88;5032203;28;20057;-65
2022/07/18 02:53:23;;;;;;;7.32;1.67;;;;;;;14.67;60.05;101100.50;5034119;28;20049;-64
2022/07/18 02:55:53;;;;;;;3.65;1.60;;;;;;;14.65;60.35;101094.38;5032756;28;20091;-64
2022/07/18 02:58:21;;;;;;;2.00;1.40;;;;;;;14.66;59.94;101096.03;5033085;28;20061;-64
2022/07/18 03:00:48;;;;;;;3.38;1.58;;;;;;;14.68;59.83;101099.34;5033817;28;20053;-65
2022/07/18 03:03:17;;;;;;;2.17;1.50;;;;;;;14.65;60.26;101091.59;5034421;28;20049;-65
2022/07/18 03:05:44;;;;;;;3.57;1.87;;;;;;;14.60;60.43;101089.78;5032715;28;20053;-64
2022/07/18 03:08:11;;;;;;;4.72;1.58;;;;;;;14.63;60.31;101091.09;5031974;28;20410;-63
2022/07/18 03:10:39;;;;;;;4.65;2.05;;;;;;;14.57;60.45;101096.88;5032355;28;20062;-65
2022/07/18 03:13:06;;;;;;;3.22;1.50;;;;;;;14.56;60.35;101095.19;5031794;28;20395;-65
2022/07/18 03:15:33;;;;;;;3.20;1.40;;;;;;;14.55;60.43;101099.16;5031815;28;20049;-65
2022/07/18 03:18:01;;;;;;;2.78;1.70;;;;;;;14.53;60.32;101089.38;5034886;28;20052;-66
2022/07/18 03:20:30;;;;;;;3.42;1.70;;;;;;;14.52;61.04;101093.34;5030208;28;20060;-66
2022/07/18 03:22:57;;;;;;;5.30;1.80;;;;;;;14.53;60.82;101089.38;5032205;28;20050;-66
2022/07/18 03:25:24;;;;;;;6.10;2.20;;;;;;;14.53;60.99;101090.22;5014030;28;20503;-65
2022/07/18 03:27:52;;;;;;;5.05;1.88;;;;;;;14.54;61.25;101085.44;5028287;28;20673;-65
2022/07/18 03:30:19;;;;;;;4.28;1.85;;;;;;;14.53;61.01;101090.22;5032693;28;20057;-66
2022/07/18 03:32:46;;;;;;;3.60;1.55;;;;;;;14.53;60.75;101080.97;5031902;28;20045;-65
2022/07/18 03:35:14;;;;;;;3.78;1.85;;;;;;;14.53;61.33;101089.38;5024173;28;20092;-66
2022/07/18 03:37:42;;;;;;;4.53;2.15;;;;;;;14.54;60.92;101080.66;5032138;28;20056;-65
2022/07/18 03:40:11;;;;;;;4.47;2.58;;;;;;;14.51;60.72;101077.66;5023302;28;20652;-66
2022/07/18 03:42:38;;;;;;;3.97;2.10;;;;;;;14.46;60.43;101087.06;5032034;28;20056;-66
2022/07/18 03:45:08;;;;;;;3.22;1.58;;;;;;;14.50;60.70;101079.66;5023756;28;20064;-66
2022/07/18 03:47:36;;;;;;;5.32;2.33;;;;;;;14.51;60.66;101081.31;5032318;28;20049;-65
2022/07/18 03:50:03;;;;;;;5.70;1.70;;;;;;;14.53;60.70;101081.81;5026424;28;20139;-66
2022/07/18 03:52:31;;;;;;;3.15;1.60;;;;;;;14.56;60.54;101083.16;5032746;28;20413;-65
2022/07/18 03:55:01;;;;;;;3.30;1.73;;;;;;;14.55;60.66;101082.34;5032559;28;20063;-66
2022/07/18 03:57:28;;;;;;;7.03;3.38;;;;;;;14.58;60.90;101086.47;5036319;28;20148;-66
2022/07/18 03:59:56;;;;;;;4.50;2.70;;;;;;;14.54;61.06;101091.84;5028774;28;20072;-66
2022/07/18 04:02:23;;;;;;;3.38;1.85;;;;;;;14.57;60.72;101080.03;5038918;28;20053;-66
2022/07/18 04:04:50;;;;;;;3.90;1.90;;;;;;;14.58;60.49;101076.06;5035268;28;20053;-66
2022/07/18 04:07:17;;;;;;;3.97;2.20;;;;;;;14.58;60.69;101084.47;5036481;28;20080;-66
2022/07/18 04:09:45;;;;;;;4.53;2.60;;;;;;;14.57;60.70;101073.59;5036178;28;20057;-65
2022/07/18 04:12:13;;;;;;;6.13;2.35;;;;;;;14.59;60.82;101088.09;5037346;28;20053;-66
2022/07/18 04:14:41;;;;;;;5.57;2.45;;;;;;;14.59;60.85;101082.50;5034869;28;20053;-66
2022/07/18 04:17:08;;;;;;;3.47;1.88;;;;;;;14.61;60.88;101086.66;5035515;28;20064;-66
2022/07/18 04:19:35;;;;;;;4.40;2.00;;;;;;;14.66;60.72;101093.22;5036348;28;20283;-66
2022/07/18 04:22:03;;;;;;;4.60;2.00;;;;;;;14.69;61.06;101098.19;5036245;28;20057;-66
2022/07/18 04:24:30;;;;;;;4.78;1.80;;;;;;;14.71;60.90;101104.31;5036202;28;20049;-66
2022/07/18 04:26:57;;;;;;;2.92;1.77;;;;;;;14.75;61.14;101099.69;5034000;28;20059;-66
2022/07/18 04:29:26;;;;;;;5.55;1.77;;;;;;;14.79;61.20;101092.28;5035839;28;20056;-66
2022/07/18 04:31:53;;;;;;;5.27;1.90;;;;;;;14.84;61.00;101089.31;5034763;28;20064;-66
2022/07/18 04:34:21;;;;;;;4.05;1.70;;;;;;;14.81;60.78;101081.56;5034836;28;21018;-66
2022/07/18 04:36:48;;;;;;;3.33;1.80;;;;;;;14.86;60.59;101087.00;5035643;28;20057;-66
2022/07/18 04:39:16;;;;;;;4.18;1.98;;;;;;;14.92;61.02;101080.06;5035664;28;20417;-67
2022/07/18 04:41:44;;;;;;;3.28;1.50;;;;;;;14.95;60.78;101076.63;5037357;28;20064;-66
2022/07/18 04:44:11;;;;;;;3.05;1.77;;;;;;;15.00;60.67;101087.66;5035475;28;20068;-67
2022/07/18 04:46:40;;;;;;;4.18;1.80;;;;;;;15.02;60.59;101076.13;5034526;28;20045;-66
2022/07/18 04:49:07;;;;;;;5.87;2.00;;;;;;;15.11;60.08;101076.13;5037613;28;20571;-67
2022/07/18 04:51:35;;;;;;;3.50;1.77;;;;;;;15.14;60.48;101070.69;5034199;28;20049;-66
2022/07/18 04:54:02;;;;;;;4.63;2.08;;;;;;;15.21;60.34;101081.41;5034747;28;20133;-66
2022/07/18 04:56:29;;;;;;;4.13;2.35;;;;;;;15.32;60.10;101079.91;5035280;28;20057;-66
2022/07/18 04:58:56;;;;;;;6.10;2.33;;;;;;;15.41;60.23;101077.06;5034915;28;20053;-66
2022/07/18 05:01:24;;;;;;;3.00;2.25;;;;;;;15.50;59.81;101079.91;5035790;28;20049;-65
2022/07/18 05:03:52;;;;;;;3.15;1.90;;;;;;;15.57;59.38;101077.38;5031345;28;20049;-66
2022/07/18 05:06:20;;;;;;;3.63;2.17;;;;;;;15.63;59.10;101076.06;5035111;28;20481;-67
2022/07/18 05:08:47;;;;;;;5.60;2.20;;;;;;;15.75;58.80;101078.22;5032552;28;20053;-67
2022/07/18 05:11:14;;;;;;;3.35;2.15;;;;;;;15.78;58.46;101074.72;5031262;28;20072;-67
2022/07/18 05:13:42;;;;;;;3.65;2.05;;;;;;;15.84;58.32;101076.19;5033877;28;20397;-66
2022/07/18 05:16:09;;;;;;;3.53;2.33;;;;;;;15.93;58.26;101074.16;5033619;28;20049;-66
2022/07/18 05:18:36;;;;;;;3.78;2.30;;;;;;;15.74;58.54;101070.94;5031535;28;20057;-59
2022/07/18 05:21:05;;;;;;;4.97;2.40;;;;;;;15.95;58.41;101077.47;5032296;28;20056;-59
2022/07/18 05:23:32;;;;;;;4.37;2.63;;;;;;;15.98;58.31;101084.41;5030392;28;20719;-59
2022/07/18 05:25:59;;;;;;;3.88;2.00;;;;;;;16.12;57.88;101076.56;5031786;28;20057;-59
2022/07/18 05:28:27;;;;;;;7.70;4.05;;;;;;;16.06;57.26;101071.47;5031200;28;20422;-59
2022/07/18 05:30:54;;;;;;;14.05;7.05;;;;;;;16.09;57.23;101070.81;5032122;28;20053;-59
2022/07/18 05:33:22;;;;;;;19.00;13.00;;;;;;;16.03;57.46;101078.59;5031534;28;20060;-59
2022/07/18 05:35:49;;;;;;;19.98;13.73;;;;;;;16.23;57.44;101077.88;5032883;28;20076;-59
2022/07/18 05:38:18;;;;;;;26.00;16.60;;;;;;;16.47;56.71;101067.97;5034084;28;20060;-59
2022/07/18 05:40:45;;;;;;;18.30;12.25;;;;;;;16.56;56.49;101074.34;5034150;28;20057;-59
2022/07/18 05:43:13;;;;;;;16.27;10.40;;;;;;;16.64;56.42;101069.84;5032699;28;20059;-59
2022/07/18 05:45:40;;;;;;;18.52;10.70;;;;;;;16.72;56.16;101057.72;5032455;28;20061;-59
2022/07/18 05:48:08;;;;;;;14.90;9.73;;;;;;;16.74;56.29;101063.81;5034145;28;20049;-59
2022/07/18 05:50:36;;;;;;;15.45;8.73;;;;;;;16.75;56.27;101059.00;5034051;28;20548;-59
2022/07/18 05:53:03;;;;;;;9.90;5.07;;;;;;;16.86;56.46;101059.47;5032774;28;20053;-59
2022/07/18 05:55:32;;;;;;;9.13;3.72;;;;;;;17.04;56.34;101052.53;5036595;28;20493;-59
2022/07/18 05:57:59;;;;;;;8.57;3.55;;;;;;;17.02;56.71;101050.06;5033291;28;20069;-59
2022/07/18 06:00:27;;;;;;;4.70;2.80;;;;;;;17.30;56.20;101046.66;5038118;28;20056;-66
2022/07/18 06:02:54;;;;;;;8.00;3.58;;;;;;;17.52;55.60;101047.44;5032848;28;20060;-65
2022/07/18 06:05:21;;;;;;;11.18;5.65;;;;;;;17.69;55.18;101037.97;5033310;28;20436;-66
2022/07/18 06:07:49;;;;;;;12.65;7.88;;;;;;;17.88;54.62;101037.44;5035024;28;20049;-66
2022/07/18 06:10:16;;;;;;;12.75;7.95;;;;;;;18.02;53.86;101035.13;5033751;28;20063;-66
2022/07/18 06:12:45;;;;;;;12.10;7.68;;;;;;;18.18;53.66;101033.22;5033338;28;20182;-66
2022/07/18 06:15:14;;;;;;;13.45;7.55;;;;;;;18.33;53.40;101025.22;5026233;28;21820;-65
2022/07/18 06:17:41;;;;;;;12.25;7.35;;;;;;;18.46;53.47;101036.16;5025644;28;20068;-66
2022/07/18 06:20:09;;;;;;;16.38;6.70;;;;;;;18.62;53.13;101038.25;5031211;28;20494;-66
2022/07/18 06:22:36;;;;;;;10.18;4.80;;;;;;;18.74;53.67;101029.75;5027928;28;20048;-66
2022/07/18 06:25:05;;;;;;;6.38;4.55;;;;;;;18.91;53.34;101025.03;5032327;28;20048;-66
2022/07/18 06:27:32;;;;;;;8.95;4.43;;;;;;;19.01;53.34;101016.88;5028538;28;20069;-63
2022/07/18 06:30:04;;;;;;;9.98;4.00;;;;;;;19.15;53.31;101018.47;5007504;28;20611;-66
2022/07/18 06:32:31;;;;;;;10.90;4.35;;;;;;;19.23;53.36;101017.50;5007505;28;20054;-66
2022/07/18 06:34:58;;;;;;;9.35;4.68;;;;;;;19.40;52.53;101014.38;5010117;28;20068;-65
2022/07/18 06:37:26;;;;;;;7.38;4.00;;;;;;;19.48;51.34;101013.34;5009418;28;20053;-66
2022/07/18 06:39:53;;;;;;;5.93;3.15;;;;;;;19.66;50.36;101010.19;5008625;28;20057;-66
2022/07/18 06:42:20;;;;;;;4.82;2.97;;;;;;;19.78;49.19;101010.16;5006072;28;20076;-66
2022/07/18 06:44:48;;;;;;;4.65;2.58;;;;;;;19.93;48.34;101016.16;5006243;28;20535;-66
2022/07/18 06:47:17;;;;;;;5.25;2.75;;;;;;;20.03;48.08;101015.59;5009252;28;20517;-65
2022/07/18 06:49:44;;;;;;;3.92;2.40;;;;;;;20.18;47.63;101017.63;5008257;28;20054;-65
2022/07/18 06:52:11;;;;;;;5.47;2.72;;;;;;;20.31;47.34;101007.00;5008800;28;20390;-65
2022/07/18 06:54:40;;;;;;;4.07;2.55;;;;;;;20.46;47.68;101016.66;5009690;28;20054;-65
2022/07/18 06:57:09;;;;;;;5.65;2.85;;;;;;;20.58;47.44;101008.06;5007340;28;20057;-65
2022/07/18 06:59:37;;;;;;;4.03;2.33;;;;;;;20.65;46.85;101013.06;5008771;28;20690;-65
2022/07/18 07:02:04;;;;;;;4.25;2.30;;;;;;;20.78;46.78;101011.72;5009900;28;20061;-66
2022/07/18 07:04:33;;;;;;;8.32;2.70;;;;;;;20.91;46.53;101005.94;5009023;28;20057;-66
2022/07/18 07:07:00;;;;;;;16.17;3.50;;;;;;;21.11;46.11;101001.91;5007576;28;20064;-65
2022/07/18 07:09:28;;;;;;;9.68;2.15;;;;;;;21.23;45.62;101003.75;5008429;28;20060;-64
2022/07/18 07:11:55;;;;;;;5.75;2.10;;;;;;;21.39;45.07;101006.50;5009015;28;20062;-65
2022/07/18 07:14:22;;;;;;;5.28;2.10;;;;;;;21.51;44.34;101008.38;5006891;28;20053;-66
2022/07/18 07:16:49;;;;;;;3.45;1.70;;;;;;;21.65;43.63;101002.97;5008461;28;20642;-67
2022/07/18 07:19:17;;;;;;;2.70;1.65;;;;;;;21.79;43.65;101003.19;5005427;28;20072;-66
2022/07/18 07:21:46;;;;;;;2.92;1.50;;;;;;;21.96;43.02;101003.88;5006192;28;20057;-65
2022/07/18 07:24:13;;;;;;;8.30;2.50;;;;;;;22.08;42.59;101003.69;5007312;28;20068;-66
2022/07/18 07:26:40;;;;;;;5.93;2.05;;;;;;;22.23;42.77;101005.59;5006340;28;20058;-66
2022/07/18 07:29:08;;;;;;;12.80;3.10;;;;;;;22.40;42.31;100998.53;5041768;28;20128;-65
2022/07/18 07:31:35;;;;;;;5.63;2.00;;;;;;;22.53;41.63;101001.16;5047568;28;20052;-65
2022/07/18 07:34:04;;;;;;;4.30;1.58;;;;;;;22.68;41.26;100998.16;5049367;28;20082;-66
2022/07/18 07:36:31;;;;;;;3.40;1.90;;;;;;;22.80;41.37;100991.38;5046549;28;20052;-65
2022/07/18 07:39:00;;;;;;;6.38;2.15;;;;;;;23.01;41.10;100981.53;5049782;28;20461;-66
2022/07/18 07:41:27;;;;;;;5.07;1.80;;;;;;;23.16;40.68;100982.50;5049463;28;20052;-65
2022/07/18 07:43:54;;;;;;;5.22;2.30;;;;;;;23.33;40.49;100970.56;5051203;28;20066;-65
2022/07/18 07:46:22;;;;;;;4.10;2.08;;;;;;;23.52;39.81;100966.69;5050776;28;20416;-64
2022/07/18 07:48:49;;;;;;;4.22;1.83;;;;;;;23.76;39.45;100970.97;5051076;28;20057;-66
2022/07/18 07:51:16;;;;;;;3.35;1.90;;;;;;;24.30;39.38;100966.50;5050345;28;20049;-65
2022/07/18 07:53:44;;;;;;;5.18;2.17;;;;;;;25.29;37.43;100963.75;5051395;28;20056;-65
2022/07/18 07:56:12;;;;;;;5.60;2.00;;;;;;;26.41;34.98;100967.44;5051118;28;20056;-66
2022/07/18 07:58:40;;;;;;;4.22;2.20;;;;;;;27.14;34.02;100966.78;5051789;28;20056;-65
2022/07/18 08:01:07;;;;;;;3.10;1.65;;;;;;;28.08;32.51;100962.06;5053305;28;20060;-66
2022/07/18 08:03:34;;;;;;;3.40;1.60;;;;;;;28.86;31.34;100958.78;5048526;28;20425;-66
2022/07/18 08:06:02;;;;;;;4.40;1.80;;;;;;;30.01;29.51;100942.72;5051258;28;20056;-66
2022/07/18 08:08:29;;;;;;;2.90;1.50;;;;;;;30.71;27.47;100945.50;5050295;28;20076;-64
2022/07/18 08:10:56;;;;;;;4.47;2.03;;;;;;;31.84;27.13;100939.66;5051658;28;20072;-64
2022/07/18 08:13:25;;;;;;;4.22;1.65;;;;;;;32.99;24.90;100938.56;5049756;28;20063;-65
2022/07/18 08:15:53;;;;;;;5.50;2.42;;;;;;;33.96;23.78;100942.84;5050965;28;20057;-64
2022/07/18 08:18:20;;;;;;;3.78;1.20;;;;;;;34.80;20.23;100938.63;5052045;28;20049;-64
2022/07/18 08:20:47;;;;;;;4.22;1.52;;;;;;;35.40;20.24;100943.31;5051054;28;20068;-65
2022/07/18 08:23:16;;;;;;;3.22;1.20;;;;;;;36.08;18.04;100936.78;5049351;28;20052;-65
2022/07/18 08:25:45;;;;;;;2.15;1.10;;;;;;;36.17;17.53;100936.78;5053766;28;20045;-66
2022/07/18 08:28:13;;;;;;;3.20;1.23;;;;;;;36.56;17.57;100926.31;5049693;28;20068;-65
2022/07/18 08:30:42;;;;;;;3.35;1.33;;;;;;;37.35;16.68;100922.59;5050776;28;20053;-65
2022/07/18 08:33:09;;;;;;;2.58;1.40;;;;;;;37.55;16.77;100933.63;5049378;28;20052;-65
2022/07/18 08:35:37;;;;;;;3.55;1.20;;;;;;;37.33;16.33;100936.00;5050601;28;21437;-65
2022/07/18 08:38:05;;;;;;;3.30;1.30;;;;;;;37.41;16.35;100928.53;5050062;28;20053;-65
2022/07/18 08:40:32;;;;;;;3.53;1.23;;;;;;;38.08;16.34;100925.63;5050289;28;20048;-64
2022/07/18 08:43:00;;;;;;;4.40;1.30;;;;;;;38.87;15.14;100918.41;5055592;28;20045;-65
2022/07/18 08:45:27;;;;;;;4.88;1.30;;;;;;;38.85;15.67;100921.84;5053107;28;20045;-65
2022/07/18 08:47:56;;;;;;;2.60;1.10;;;;;;;39.72;14.82;100920.63;5054791;28;20060;-65
2022/07/18 08:50:26;;;;;;;4.60;1.55;;;;;;;39.97;14.43;100917.03;5053868;28;20049;-65
2022/07/18 08:52:55;;;;;;;4.65;1.60;;;;;;;40.40;14.33;100916.50;5054921;28;20056;-65
2022/07/18 08:55:22;;;;;;;4.55;1.40;;;;;;;40.94;13.60;100916.00;5052442;28;20493;-64
2022/07/18 08:57:49;;;;;;;2.15;1.25;;;;;;;41.22;13.12;100910.41;5054404;28;20071;-65
2022/07/18 09:00:17;;;;;;;4.35;1.30;;;;;;;40.58;13.16;100907.41;5052676;28;20413;-65
2022/07/18 09:02:44;;;;;;;2.85;1.38;;;;;;;41.43;12.67;100905.25;5054734;28;20064;-65
2022/07/18 09:05:21;;;;;;;3.53;1.40;;;;;;;43.02;11.64;100913.34;5056618;28;20053;-65
2022/07/18 09:07:49;;;;;;;2.53;1.10;;;;;;;43.15;11.22;100916.50;5052940;28;20112;-65
2022/07/18 09:10:16;;;;;;;3.17;1.45;;;;;;;43.44;11.03;100905.59;5053284;28;20056;-63
2022/07/18 09:12:58;;;;;;;1.60;1.20;;;;;;;44.36;10.97;100901.81;5052644;28;20055;-65
2022/07/18 09:15:26;;;;;;;2.10;1.13;;;;;;;45.26;10.05;100920.97;5054777;28;20064;-64
2022/07/18 09:17:56;;;;;;;;;;;;;;;45.46;9.87;100905.75;5052944;28;20052;-64
2022/07/18 09:20:25;;;;;;;3.70;1.40;;;;;;;45.94;9.36;100907.09;5053061;28;19921;-65
2022/07/18 09:22:52;;;;;;;3.45;1.50;;;;;;;46.57;9.14;100904.13;5054975;28;20052;-64
2022/07/18 09:25:24;;;;;;;2.67;1.60;;;;;;;47.40;8.42;100905.44;5052534;28;20079;-64
2022/07/18 09:27:53;;;;;;;2.33;1.80;;;;;;;46.75;8.39;100900.38;5053878;28;20057;-65
2022/07/18 09:30:26;;;;;;;1.63;1.30;;;;;;;46.94;8.14;100902.50;5056077;28;20055;-65
2022/07/18 09:33:05;;;;;;;2.47;1.60;;;;;;;46.63;8.31;100901.91;5053134;28;20457;-65
2022/07/18 09:35:36;;;;;;;2.20;1.10;;;;;;;47.21;8.88;100906.34;5054240;28;20650;-65
2022/07/18 09:38:05;;;;;;;2.60;1.50;;;;;;;47.78;8.08;100898.00;5052644;28;20052;-65
2022/07/18 09:40:34;;;;;;;1.73;1.20;;;;;;;48.61;8.01;100892.94;5053540;28;20052;-65
2022/07/18 09:43:03;;;;;;;2.25;1.52;;;;;;;49.89;7.45;100904.88;5053804;28;20493;-65
2022/07/18 09:45:33;;;;;;;3.75;1.80;;;;;;;50.20;6.74;100902.09;5052946;28;20053;-64
2022/07/18 09:48:02;;;;;;;2.00;1.40;;;;;;;50.93;6.55;100896.78;5052453;28;20064;-65
2022/07/18 09:50:33;;;;;;;2.58;1.70;;;;;;;51.32;5.98;100896.78;5054154;28;20052;-64
2022/07/18 09:53:11;;;;;;;2.95;1.63;;;;;;;50.13;7.14;100893.97;5051555;28;20405;-63
2022/07/18 09:55:48;;;;;;;2.33;1.83;;;;;;;48.96;7.50;100882.66;5052698;28;20397;-64
2022/07/18 09:58:18;;;;;;;3.45;1.70;;;;;;;50.14;6.87;100884.50;5051431;28;20485;-63
2022/07/18 10:00:47;;;;;;;2.42;1.63;;;;;;;49.94;6.63;100879.44;5055455;28;20525;-63
2022/07/18 10:03:15;;;;;;;3.70;1.80;;;;;;;50.27;6.71;100888.69;5051393;28;20052;-63
2022/07/18 10:05:43;;;;;;;3.40;1.73;;;;;;;50.62;6.45;100889.19;5052963;28;20416;-63
2022/07/18 10:08:14;;;;;;;5.20;1.70;;;;;;;50.10;6.68;100886.25;5054735;28;20144;-63
2022/07/18 10:10:43;;;;;;;3.25;1.63;;;;;;;50.36;6.87;100885.13;5052811;28;20496;-63
2022/07/18 10:13:11;;;;;;;4.03;1.90;;;;;;;51.30;6.03;100881.75;5052617;28;20056;-63
2022/07/18 10:15:40;;;;;;;6.93;1.90;;;;;;;50.67;6.56;100880.09;5053862;28;20098;-63
2022/07/18 10:18:10;;;;;;;2.28;1.77;;;;;;;49.14;7.17;100880.06;5050988;28;20064;-63
2022/07/18 10:20:40;;;;;;;3.22;2.20;;;;;;;49.79;6.64;100877.19;5054397;28;20453;-63
2022/07/18 10:23:17;;;;;;;3.22;1.80;;;;;;;49.07;7.31;100874.91;5052638;28;20056;-63
2022/07/18 10:25:44;;;;;;;3.70;1.70;;;;;;;49.17;6.88;100879.72;5052613;28;21013;-64
2022/07/18 10:28:14;;;;;;;3.10;1.90;;;;;;;50.32;6.77;100885.53;5052936;28;20052;-63
2022/07/18 10:30:47;;;;;;;2.65;1.88;;;;;;;51.19;5.91;100879.97;5068810;28;20045;-63
2022/07/18 10:33:37;;;;;;;3.72;1.83;;;;;;;51.80;5.55;100873.16;5070701;28;20052;-63
2022/07/18 10:36:07;;;;;;;2.70;2.25;;;;;;;51.95;6.14;100875.28;5085186;28;20044;-62
2022/07/18 10:38:36;;;;;;;1.95;1.70;;;;;;;51.26;5.93;100870.25;5074921;28;20044;-63
2022/07/18 10:41:12;;;;;;;2.13;1.67;;;;;;;52.09;5.97;100876.59;5076676;28;20052;-63
2022/07/18 10:43:45;;;;;;;2.00;1.80;;;;;;;52.60;5.56;100862.66;5063329;28;20045;-64
2022/07/18 10:46:13;;;;;;;2.53;2.05;;;;;;;53.01;5.15;100869.31;5052933;28;20056;-62
2022/07/18 10:48:59;;;;;;;2.60;1.90;;;;;;;53.27;5.22;100864.91;5065695;28;20060;-64
2022/07/18 10:51:36;;;;;;;4.17;1.93;;;;;;;53.95;5.25;100865.56;5070955;28;20091;-62
2022/07/18 10:54:11;;;;;;;;;;;;;;;53.07;5.45;100869.84;5067148;28;20496;-62
2022/07/18 10:57:10;;;;;;;1.95;1.77;;;;;;;52.93;5.25;100860.44;5071549;28;19921;-62
2022/07/18 10:59:40;;;;;;;2.28;2.05;;;;;;;53.20;5.13;100864.97;5066499;28;20055;-62
2022/07/18 11:02:08;;;;;;;3.55;2.08;;;;;;;53.21;4.94;100866.56;5067066;28;20139;-62
2022/07/18 11:04:39;;;;;;;2.42;1.70;;;;;;;51.94;5.74;100862.59;5057102;28;20063;-63
2022/07/18 11:07:10;;;;;;;3.85;2.10;;;;;;;52.19;5.35;100870.03;5052112;28;20044;-62
2022/07/18 11:09:42;;;;;;;2.38;2.17;;;;;;;52.55;5.53;100866.69;5051312;28;20068;-63
2022/07/18 11:12:20;;;;;;;1.70;1.60;;;;;;;53.00;5.45;100866.94;5054782;28;20051;-63
2022/07/18 11:15:10;;;;;;;3.63;1.92;;;;;;;53.44;5.05;100861.16;5051674;28;20067;-64
2022/07/18 11:18:04;;;;;;;2.55;2.00;;;;;;;53.75;5.10;100854.88;5052340;28;20515;-64
2022/07/18 11:20:42;;;;;;;2.90;2.30;;;;;;;53.95;5.35;100852.84;5054221;28;20057;-63
2022/07/18 11:23:19;;;;;;;2.00;1.70;;;;;;;53.95;5.55;100849.84;5053186;28;20068;-64
2022/07/18 11:25:49;;;;;;;4.55;2.03;;;;;;;53.83;5.00;100852.59;5051194;28;20413;-63
2022/07/18 11:28:16;;;;;;;2.83;2.00;;;;;;;53.15;5.09;100854.91;5052564;28;20049;-63
2022/07/18 11:30:45;;;;;;;2.33;2.13;;;;;;;53.00;5.77;100846.09;5051537;28;20057;-61
2022/07/18 11:33:23;;;;;;;1.92;1.40;;;;;;;53.01;5.59;100841.72;5051886;28;20044;-62
2022/07/18 11:35:51;;;;;;;3.03;1.85;;;;;;;52.98;5.49;100834.00;5050516;28;20063;-62